Valyermo, California
Current Conditions -  °F | °C
As of 8:55 AM on Friday 28 Nov 2014 (Local Time) from KGXA Reporting Station
Clear Clear  
Wind Chill: 66°   Ceiling: Unl
Heat Index: 66°   Visibility: 10mi
Dew Point: 11°   Wind: 1mph
Humidity: 12%   Direction: 110°ESE
Pressure: 30.08"   Gusts: NA
Location:  34.42°N, 117.79°W
Report Text: KGXA 281655Z AUTO 11001KT 10SM CLR 19/M11 A3008 RMK AO2 SLP187 T01871114 PWINO TSNO $
Loading
Personal Weather Stations






























Interactive Weather Map New forecast layout! Learn more

10-Day Weather Forecast

Advertisements
Track Severe Weather on mobile